Time;durP1;ratioP1;P1;durP2;ratioP2;P2;SDS_P1;SDS_P2;PMS_P1;PMS_P2;Temp;Humidity;BMP_temperature;BMP_pressure;BME280_temperature;BME280_humidity;BME280_pressure;Samples;Min_cycle;Max_cycle;Signal;HPM_P1;HPM_P2
2023/10/24 00:00:20;;;;;;;5.60;3.90;;;18.30;96.40;;;;;;5026620;28;20212;-63
2023/10/24 00:02:47;;;;;;;7.27;3.37;;;18.30;96.50;;;;;;5023850;28;20715;-63
2023/10/24 00:05:15;;;;;;;7.70;3.50;;;18.30;96.50;;;;;;5026233;28;20252;-63
2023/10/24 00:07:42;;;;;;;10.30;5.50;;;18.30;96.50;;;;;;5023806;28;20275;-62
2023/10/24 00:10:09;;;;;;;9.07;4.27;;;18.30;96.60;;;;;;5023408;28;20208;-62
2023/10/24 00:12:36;;;;;;;7.07;4.30;;;18.30;96.60;;;;;;5003208;28;20713;-62
2023/10/24 00:15:03;;;;;;;8.90;4.37;;;18.30;96.70;;;;;;5006034;28;20757;-62
2023/10/24 00:17:31;;;;;;;9.07;4.47;;;18.30;96.70;;;;;;5019088;28;20206;-62
2023/10/24 00:19:58;;;;;;;5.57;3.93;;;18.30;96.80;;;;;;5018538;28;20581;-62
2023/10/24 00:22:25;;;;;;;7.43;4.47;;;18.30;96.90;;;;;;5024355;28;20203;-62
2023/10/24 00:24:52;;;;;;;5.97;3.67;;;18.30;96.90;;;;;;5016791;28;20222;-62
2023/10/24 00:27:19;;;;;;;6.03;4.50;;;18.30;97.00;;;;;;5023943;28;20204;-63
2023/10/24 00:29:46;;;;;;;9.47;4.87;;;18.30;97.00;;;;;;5020732;28;20548;-63
2023/10/24 00:32:13;;;;;;;6.57;4.10;;;18.30;97.00;;;;;;5021540;28;20259;-63
2023/10/24 00:34:40;;;;;;;6.03;4.07;;;18.30;97.10;;;;;;5023491;28;20201;-63
2023/10/24 00:37:07;;;;;;;5.83;4.10;;;18.30;97.10;;;;;;5015497;28;20196;-63
2023/10/24 00:39:35;;;;;;;6.80;4.33;;;18.30;97.10;;;;;;5006162;28;20650;-63
2023/10/24 00:42:04;;;;;;;9.10;4.73;;;18.30;97.10;;;;;;5022920;28;20213;-63
2023/10/24 00:44:32;;;;;;;6.43;4.50;;;18.30;97.20;;;;;;5001051;28;20248;-63
2023/10/24 00:47:00;;;;;;;8.20;4.03;;;18.20;97.20;;;;;;5025684;28;20403;-62
2023/10/24 00:49:28;;;;;;;7.40;4.20;;;18.20;97.20;;;;;;5005311;28;20214;-62
2023/10/24 00:51:56;;;;;;;6.00;4.17;;;18.20;97.20;;;;;;5022460;28;20282;-62
2023/10/24 00:54:24;;;;;;;6.90;4.30;;;18.20;97.30;;;;;;5012701;28;20202;-62
2023/10/24 00:56:51;;;;;;;5.80;3.70;;;18.20;97.30;;;;;;5025646;28;20197;-62
2023/10/24 00:59:21;;;;;;;11.40;5.47;;;18.20;97.30;;;;;;5009874;28;20292;-62
2023/10/24 01:01:49;;;;;;;5.80;4.20;;;18.20;97.30;;;;;;5020579;28;20727;-63
2023/10/24 01:04:18;;;;;;;7.53;4.17;;;18.20;97.30;;;;;;5007228;28;20229;-63
2023/10/24 01:06:45;;;;;;;5.40;4.07;;;18.20;97.30;;;;;;5024198;28;20293;-62
2023/10/24 01:09:12;;;;;;;6.83;3.97;;;18.20;97.30;;;;;;5023373;28;20232;-62
2023/10/24 01:11:39;;;;;;;11.00;4.60;;;18.20;97.30;;;;;;5025428;28;20201;-62
2023/10/24 01:14:06;;;;;;;10.03;4.90;;;18.20;97.40;;;;;;5009426;28;20309;-63
2023/10/24 01:16:42;;;;;;;5.63;4.23;;;18.20;97.40;;;;;;5026014;28;20628;-63
2023/10/24 01:19:10;;;;;;;11.57;5.47;;;18.20;97.50;;;;;;5026256;28;20648;-62
2023/10/24 01:21:44;;;;;;;11.87;5.10;;;18.10;97.50;;;;;;5019148;28;20202;-63
2023/10/24 01:24:16;;;;;;;7.77;5.13;;;18.10;97.60;;;;;;5025948;28;20539;-63
2023/10/24 01:26:44;;;;;;;9.83;4.87;;;18.10;97.60;;;;;;5002850;28;20204;-63
2023/10/24 01:29:11;;;;;;;8.47;5.63;;;18.10;97.60;;;;;;5020770;28;20223;-63
2023/10/24 01:31:39;;;;;;;8.10;5.80;;;18.10;97.60;;;;;;5014353;28;20555;-63
2023/10/24 01:34:06;;;;;;;10.57;5.77;;;18.10;97.60;;;;;;5013992;28;20273;-62
2023/10/24 01:36:33;;;;;;;11.47;6.43;;;18.00;97.70;;;;;;5008666;28;20269;-62
2023/10/24 01:39:00;;;;;;;8.40;5.87;;;18.00;97.80;;;;;;5027557;28;20544;-62
2023/10/24 01:41:27;;;;;;;11.20;6.40;;;18.00;97.80;;;;;;5024318;28;20266;-62
2023/10/24 01:43:55;;;;;;;11.67;6.27;;;18.00;97.90;;;;;;5014424;28;20623;-62
2023/10/24 01:46:22;;;;;;;13.53;6.40;;;18.00;97.80;;;;;;5013154;28;20189;-62
2023/10/24 01:48:49;;;;;;;11.33;5.60;;;17.90;97.80;;;;;;5005563;28;20483;-63
2023/10/24 01:51:16;;;;;;;9.33;6.40;;;17.90;97.90;;;;;;5028483;28;20219;-62
2023/10/24 01:53:43;;;;;;;11.30;6.90;;;17.90;97.90;;;;;;4999991;28;20201;-62
2023/10/24 01:56:11;;;;;;;11.60;6.20;;;17.80;97.90;;;;;;5026853;28;20217;-62
2023/10/24 01:58:39;;;;;;;14.43;6.27;;;17.80;97.90;;;;;;5006249;28;20203;-62
2023/10/24 02:01:07;;;;;;;12.00;7.20;;;17.80;97.90;;;;;;5016403;28;20216;-62
2023/10/24 02:03:34;;;;;;;13.97;7.17;;;17.80;97.80;;;;;;5011412;28;20501;-62
2023/10/24 02:06:01;;;;;;;11.20;6.70;;;17.80;97.60;;;;;;5022957;28;20667;-62
2023/10/24 02:08:28;;;;;;;11.60;6.60;;;17.70;97.50;;;;;;5011983;28;20213;-62
2023/10/24 02:10:56;;;;;;;10.17;6.47;;;17.70;97.50;;;;;;5015768;28;20230;-62
2023/10/24 02:13:23;;;;;;;13.03;6.50;;;17.70;97.40;;;;;;5027860;28;20286;-62
2023/10/24 02:15:53;;;;;;;10.77;7.27;;;17.60;97.40;;;;;;5013984;28;20845;-62
2023/10/24 02:18:20;;;;;;;10.77;6.83;;;17.60;97.40;;;;;;5024603;28;20205;-62
2023/10/24 02:20:47;;;;;;;8.90;6.67;;;17.60;97.40;;;;;;5022393;28;20211;-62
2023/10/24 02:23:14;;;;;;;10.03;7.07;;;17.60;97.40;;;;;;5024390;28;20587;-62
2023/10/24 02:25:43;;;;;;;13.43;7.53;;;17.60;97.40;;;;;;5021489;28;20272;-62
2023/10/24 02:28:11;;;;;;;13.93;6.83;;;17.70;97.30;;;;;;5010534;28;20260;-62
2023/10/24 02:30:38;;;;;;;9.60;7.07;;;17.60;97.10;;;;;;5022090;28;20195;-62
2023/10/24 02:33:05;;;;;;;10.90;7.20;;;17.70;97.20;;;;;;5011746;28;20287;-63
2023/10/24 02:35:33;;;;;;;10.13;7.33;;;17.60;97.10;;;;;;5028026;28;20209;-62
2023/10/24 02:38:00;;;;;;;12.63;6.50;;;17.60;97.20;;;;;;5017996;28;20216;-62
2023/10/24 02:40:28;;;;;;;12.33;6.93;;;17.60;97.10;;;;;;5021430;28;20644;-62
2023/10/24 02:42:55;;;;;;;11.50;6.50;;;17.60;97.10;;;;;;5010154;28;20198;-63
2023/10/24 02:45:23;;;;;;;11.80;7.00;;;17.60;97.00;;;;;;5022102;28;20217;-62
2023/10/24 02:47:50;;;;;;;15.77;6.20;;;17.60;96.90;;;;;;5010199;28;20208;-62
2023/10/24 02:50:19;;;;;;;7.63;5.53;;;17.60;96.80;;;;;;5026105;28;20215;-62
2023/10/24 02:52:46;;;;;;;13.57;5.67;;;17.50;96.80;;;;;;5023469;28;20205;-63
2023/10/24 02:55:14;;;;;;;10.60;6.40;;;17.40;96.70;;;;;;5024293;28;20243;-63
2023/10/24 02:57:40;;;;;;;8.50;5.37;;;17.40;96.70;;;;;;5027466;28;20205;-62
2023/10/24 03:00:08;;;;;;;9.77;5.87;;;17.40;96.70;;;;;;5026060;28;20660;-62
2023/10/24 03:02:35;;;;;;;10.57;4.97;;;17.40;96.70;;;;;;5019463;28;20640;-62
2023/10/24 03:05:03;;;;;;;17.47;6.43;;;17.40;96.80;;;;;;5006197;28;20210;-62
2023/10/24 03:07:30;;;;;;;10.47;6.03;;;17.30;96.80;;;;;;5022511;28;20201;-62
2023/10/24 03:09:57;;;;;;;7.90;5.30;;;17.30;96.80;;;;;;5023890;28;20226;-62
2023/10/24 03:12:24;;;;;;;14.63;6.80;;;17.30;96.90;;;;;;5010345;28;20287;-62
2023/10/24 03:14:51;;;;;;;8.30;5.20;;;17.30;96.90;;;;;;5018723;28;20253;-63
2023/10/24 03:17:18;;;;;;;10.53;5.80;;;17.30;97.00;;;;;;5020754;28;20288;-62
2023/10/24 03:19:45;;;;;;;13.53;5.87;;;17.30;97.10;;;;;;5011094;28;20223;-62
2023/10/24 03:22:12;;;;;;;10.23;6.30;;;17.20;97.10;;;;;;5005826;28;20234;-62
2023/10/24 03:24:39;;;;;;;10.53;5.53;;;17.20;97.20;;;;;;5021824;28;20277;-63
2023/10/24 03:27:11;;;;;;;11.07;5.60;;;17.30;97.20;;;;;;5005530;28;20656;-63
2023/10/24 03:29:40;;;;;;;11.00;6.20;;;17.20;97.20;;;;;;5010872;28;20200;-62
2023/10/24 03:32:07;;;;;;;10.43;5.90;;;17.30;97.30;;;;;;5025258;28;20634;-62
2023/10/24 03:34:38;;;;;;;10.17;6.00;;;17.30;97.30;;;;;;5029062;28;20220;-62
2023/10/24 03:37:05;;;;;;;10.10;6.00;;;17.30;97.20;;;;;;5021795;28;20262;-63
2023/10/24 03:39:32;;;;;;;9.47;5.67;;;17.30;97.20;;;;;;5026633;28;20196;-62
2023/10/24 03:41:59;;;;;;;10.57;6.80;;;17.20;97.30;;;;;;5024204;28;20259;-62
2023/10/24 03:44:26;;;;;;;11.07;6.00;;;17.30;97.30;;;;;;5022968;28;20198;-62
2023/10/24 03:46:53;;;;;;;10.30;5.87;;;17.20;97.30;;;;;;5027621;28;20250;-62
2023/10/24 03:49:20;;;;;;;8.87;6.00;;;17.20;97.30;;;;;;5019391;28;20192;-62
2023/10/24 03:51:47;;;;;;;10.17;6.57;;;17.20;97.50;;;;;;5026365;28;20200;-62
2023/10/24 03:54:14;;;;;;;9.47;6.03;;;17.20;97.50;;;;;;5024540;28;20212;-62
2023/10/24 03:56:43;;;;;;;11.23;6.07;;;17.20;97.50;;;;;;5026284;28;20293;-62
2023/10/24 03:59:11;;;;;;;13.83;7.03;;;17.20;97.40;;;;;;5025734;28;20261;-62
2023/10/24 04:01:38;;;;;;;13.07;7.20;;;17.10;97.50;;;;;;5022703;28;20206;-62
2023/10/24 04:04:05;;;;;;;8.63;6.77;;;17.10;97.60;;;;;;5023376;28;20622;-62
2023/10/24 04:06:34;;;;;;;11.80;6.77;;;17.10;97.70;;;;;;5010700;28;20223;-62
2023/10/24 04:09:04;;;;;;;14.73;8.17;;;17.10;97.80;;;;;;5025889;28;20209;-62
2023/10/24 04:11:32;;;;;;;13.67;7.63;;;17.10;98.00;;;;;;5020668;28;20229;-62
2023/10/24 04:13:59;;;;;;;13.00;8.33;;;17.10;97.80;;;;;;5025897;28;20209;-62
2023/10/24 04:16:26;;;;;;;13.93;8.67;;;17.00;97.80;;;;;;5021082;28;20507;-62
2023/10/24 04:18:53;;;;;;;16.30;8.90;;;17.00;97.90;;;;;;5024079;28;20698;-62
2023/10/24 04:21:20;;;;;;;13.93;9.37;;;17.00;98.00;;;;;;5020179;28;20231;-63
2023/10/24 04:23:47;;;;;;;13.57;9.00;;;17.00;98.10;;;;;;5025784;28;20532;-62
2023/10/24 04:26:14;;;;;;;15.10;9.97;;;17.00;98.20;;;;;;5016845;28;20556;-62
2023/10/24 04:28:41;;;;;;;13.47;9.50;;;17.00;98.30;;;;;;5021614;28;20202;-63
2023/10/24 04:31:09;;;;;;;14.43;10.23;;;16.90;98.40;;;;;;5019557;28;20208;-62
2023/10/24 04:33:36;;;;;;;16.23;11.73;;;16.90;98.50;;;;;;5023104;28;20208;-62
2023/10/24 04:36:07;;;;;;;17.23;10.73;;;16.90;98.90;;;;;;5014297;28;20295;-62
2023/10/24 04:38:34;;;;;;;17.80;11.07;;;17.00;98.80;;;;;;5019654;28;20199;-62
2023/10/24 04:41:01;;;;;;;17.80;11.00;;;17.00;98.90;;;;;;5017817;28;20548;-62
2023/10/24 04:43:28;;;;;;;15.23;11.73;;;16.90;99.00;;;;;;5031600;28;20204;-62
2023/10/24 04:45:55;;;;;;;16.80;11.60;;;16.90;99.10;;;;;;5022647;28;20219;-62
2023/10/24 04:48:22;;;;;;;13.40;11.00;;;16.90;99.10;;;;;;5026803;28;20195;-62
2023/10/24 04:50:49;;;;;;;17.20;10.93;;;16.90;99.20;;;;;;5026168;28;20203;-62
2023/10/24 04:53:16;;;;;;;16.00;10.90;;;16.90;99.50;;;;;;5028885;28;20192;-62
2023/10/24 04:55:43;;;;;;;15.63;11.63;;;16.90;99.30;;;;;;5027260;28;20545;-62
2023/10/24 04:58:10;;;;;;;12.70;10.87;;;16.90;99.40;;;;;;5028189;28;20197;-62
2023/10/24 05:00:37;;;;;;;14.87;10.73;;;16.90;99.40;;;;;;5024490;28;20201;-62
2023/10/24 05:03:04;;;;;;;21.50;11.60;;;16.90;99.40;;;;;;5026848;28;20203;-62
2023/10/24 05:05:31;;;;;;;15.70;9.97;;;16.80;99.40;;;;;;5020460;28;20682;-63
2023/10/24 05:07:59;;;;;;;14.50;10.07;;;16.80;99.50;;;;;;5027192;28;20691;-62
2023/10/24 05:10:26;;;;;;;15.80;10.33;;;16.80;99.60;;;;;;5023261;28;20202;-62
2023/10/24 05:12:53;;;;;;;14.17;10.93;;;16.80;99.70;;;;;;5023734;28;20618;-62
2023/10/24 05:15:20;;;;;;;17.97;11.47;;;16.80;99.70;;;;;;5025509;28;20243;-62
2023/10/24 05:17:47;;;;;;;16.53;10.33;;;16.90;99.80;;;;;;5016676;28;20207;-62
2023/10/24 05:20:17;;;;;;;16.77;11.53;;;16.90;99.80;;;;;;5027621;28;20295;-62
2023/10/24 05:22:44;;;;;;;14.80;10.83;;;17.00;99.70;;;;;;5022509;28;20237;-62
2023/10/24 05:25:11;;;;;;;14.90;10.30;;;17.00;99.90;;;;;;5025070;28;20226;-62
2023/10/24 05:27:38;;;;;;;13.53;10.70;;;17.00;99.70;;;;;;5024308;28;20231;-62
2023/10/24 05:30:06;;;;;;;19.63;11.87;;;17.00;99.70;;;;;;5020888;28;20632;-62
2023/10/24 05:32:34;;;;;;;17.43;11.37;;;16.90;99.70;;;;;;5025062;28;20200;-62
2023/10/24 05:35:33;;;;;;;14.70;11.40;;;17.00;99.80;;;;;;5062817;23;20239;-82
2023/10/24 05:38:04;;;;;;;16.10;11.70;;;16.90;99.90;;;;;;5013261;28;20698;-80
2023/10/24 05:40:37;;;;;;;16.03;12.10;;;16.90;99.90;;;;;;4998608;28;20212;-80
2023/10/24 05:43:12;;;;;;;21.40;12.63;;;17.00;99.90;;;;;;5035221;28;20208;-80
2023/10/24 05:45:47;;;;;;;15.37;10.93;;;17.00;99.90;;;;;;5012276;28;20227;-81
2023/10/24 05:53:41;;;;;;;15.33;11.67;;;17.00;99.90;;;;;;5021559;28;20254;-80
2023/10/24 05:56:20;;;;;;;19.50;12.17;;;17.00;99.90;;;;;;4929962;28;20213;-81
2023/10/24 05:58:48;;;;;;;14.33;11.27;;;17.00;99.90;;;;;;5016841;28;20233;-81
2023/10/24 06:01:24;;;;;;;18.73;11.30;;;16.90;99.90;;;;;;5018591;28;20287;-80
2023/10/24 06:04:04;;;;;;;21.60;11.93;;;17.00;99.90;;;;;;5014826;28;20200;-80
2023/10/24 06:06:57;;;;;;;12.03;9.67;;;17.00;99.90;;;;;;5015663;28;20311;-81
2023/10/24 06:09:55;;;;;;;18.37;9.87;;;17.00;99.90;;;;;;5018589;28;20199;-80
2023/10/24 06:12:47;;;;;;;16.13;10.07;;;17.00;99.90;;;;;;5018867;28;20212;-79
2023/10/24 06:15:23;;;;;;;16.83;10.50;;;17.00;99.90;;;;;;5018431;28;20251;-80
2023/10/24 06:18:05;;;;;;;16.77;9.83;;;17.00;99.90;;;;;;5003084;28;20218;-78
2023/10/24 06:20:43;;;;;;;17.30;9.53;;;17.00;99.90;;;;;;5014191;28;20208;-80
2023/10/24 06:23:11;;;;;;;17.10;9.83;;;17.00;99.90;;;;;;5014293;28;20558;-79
2023/10/24 06:25:42;;;;;;;17.63;10.33;;;17.00;99.90;;;;;;5030554;28;20563;-80
2023/10/24 06:28:21;;;;;;;13.97;8.60;;;17.00;99.90;;;;;;5017721;28;20624;-79
2023/10/24 06:31:00;;;;;;;18.17;8.60;;;17.00;99.90;;;;;;5031445;28;20228;-80
2023/10/24 06:33:30;;;;;;;13.03;9.10;;;17.00;99.90;;;;;;5013786;28;20217;-79
2023/10/24 06:36:12;;;;;;;14.23;8.23;;;17.00;99.90;;;;;;5014998;28;20251;-79
2023/10/24 06:38:52;;;;;;;12.83;8.43;;;17.00;99.90;;;;;;5007129;28;20212;-79
2023/10/24 06:41:32;;;;;;;12.83;8.57;;;17.00;99.90;;;;;;5030498;28;20216;-80
2023/10/24 06:44:21;;;;;;;16.80;8.23;;;17.00;99.90;;;;;;5015762;28;20248;-79
2023/10/24 06:47:10;;;;;;;15.97;7.97;;;17.00;99.90;;;;;;5016110;28;20251;-79
2023/10/24 06:49:47;;;;;;;13.40;9.03;;;17.00;99.90;;;;;;5017283;28;20201;-79
2023/10/24 06:52:22;;;;;;;14.20;10.63;;;17.00;99.90;;;;;;5018768;28;20197;-79
2023/10/24 06:54:51;;;;;;;14.47;9.93;;;17.00;99.90;;;;;;5002780;28;20209;-81
2023/10/24 06:57:29;;;;;;;20.50;10.40;;;17.00;99.90;;;;;;5031212;28;20206;-79
2023/10/24 07:00:04;;;;;;;17.83;10.00;;;17.10;99.90;;;;;;5014029;28;20277;-79
2023/10/24 07:02:47;;;;;;;14.50;10.00;;;17.00;99.90;;;;;;5016297;28;20210;-79
2023/10/24 07:05:24;;;;;;;16.33;10.07;;;17.00;99.90;;;;;;5033022;28;20200;-80
2023/10/24 07:07:55;;;;;;;16.67;10.47;;;17.00;99.90;;;;;;4995717;28;20202;-77
2023/10/24 07:10:25;;;;;;;13.30;9.50;;;17.00;99.90;;;;;;5015230;28;20196;-80
2023/10/24 07:12:54;;;;;;;13.10;8.87;;;17.00;99.90;;;;;;5014787;28;20203;-79
2023/10/24 07:15:25;;;;;;;15.50;9.90;;;16.90;99.90;;;;;;5010338;28;20218;-79
2023/10/24 07:17:59;;;;;;;16.27;10.13;;;16.90;99.90;;;;;;5012498;28;20199;-80
2023/10/24 07:20:28;;;;;;;15.03;9.57;;;16.90;99.90;;;;;;5015101;28;20197;-80
2023/10/24 07:22:58;;;;;;;12.83;9.63;;;16.90;99.90;;;;;;5014120;28;20226;-80
2023/10/24 07:25:28;;;;;;;14.43;10.03;;;16.90;99.90;;;;;;5011831;28;20197;-79
2023/10/24 07:28:18;;;;;;;13.30;9.33;;;16.90;99.90;;;;;;5015164;28;20205;-78
2023/10/24 07:30:54;;;;;;;13.00;8.60;;;16.90;99.90;;;;;;4999983;28;20199;-77
2023/10/24 07:33:36;;;;;;;13.67;9.37;;;17.00;99.90;;;;;;4973613;28;20235;-78
2023/10/24 07:36:14;;;;;;;14.20;8.90;;;17.00;99.90;;;;;;4999668;28;20227;-78
2023/10/24 07:38:46;;;;;;;12.53;9.77;;;17.10;99.90;;;;;;4995065;28;20222;-79
2023/10/24 07:41:15;;;;;;;12.20;9.10;;;17.10;99.90;;;;;;5014630;28;20214;-79
2023/10/24 07:44:05;;;;;;;16.50;8.40;;;17.10;99.90;;;;;;5006050;28;20786;-79
2023/10/24 07:46:35;;;;;;;12.03;8.03;;;17.10;99.90;;;;;;4998824;28;20216;-79
2023/10/24 07:49:09;;;;;;;10.70;7.97;;;17.20;99.90;;;;;;5008568;28;20210;-79
2023/10/24 07:51:56;;;;;;;13.33;9.00;;;17.20;99.90;;;;;;5024378;28;20213;-79
2023/10/24 07:54:41;;;;;;;14.87;8.60;;;17.20;99.90;;;;;;5005094;28;20199;-79
2023/10/24 07:57:14;;;;;;;16.50;8.40;;;17.20;99.90;;;;;;4996311;28;20213;-78
2023/10/24 07:59:46;;;;;;;12.27;7.80;;;17.20;99.90;;;;;;5001951;28;20550;-79
2023/10/24 08:02:20;;;;;;;12.07;7.70;;;17.20;99.90;;;;;;5002226;28;20217;-79
2023/10/24 08:04:48;;;;;;;15.47;9.00;;;17.20;99.90;;;;;;5017631;28;20215;-78
2023/10/24 08:07:18;;;;;;;21.87;8.47;;;17.30;99.90;;;;;;5019701;28;20321;-78
2023/10/24 08:09:58;;;;;;;13.63;9.43;;;17.30;99.90;;;;;;5015839;28;20218;-78
2023/10/24 08:12:34;;;;;;;15.47;8.77;;;17.30;99.90;;;;;;5011902;28;20214;-78
2023/10/24 08:15:13;;;;;;;11.97;8.80;;;17.30;99.90;;;;;;5020853;28;20216;-79
2023/10/24 08:17:47;;;;;;;13.87;8.33;;;17.30;99.90;;;;;;4989255;28;20203;-79
2023/10/24 08:20:19;;;;;;;14.53;8.67;;;17.30;99.90;;;;;;4992242;28;20215;-79
2023/10/24 08:23:02;;;;;;;13.07;8.47;;;17.30;99.90;;;;;;5004126;28;20276;-81
2023/10/24 08:25:45;;;;;;;16.70;8.90;;;17.30;99.90;;;;;;5012677;28;20218;-80
2023/10/24 08:28:27;;;;;;;11.73;7.50;;;17.30;99.90;;;;;;5004662;28;20204;-79
2023/10/24 08:31:02;;;;;;;14.37;7.83;;;17.40;99.90;;;;;;5036410;28;20204;-79
2023/10/24 08:33:33;;;;;;;12.97;8.10;;;17.40;99.90;;;;;;5010503;28;20196;-79
2023/10/24 08:36:05;;;;;;;15.40;8.10;;;17.40;99.90;;;;;;4999584;28;20687;-80
2023/10/24 08:38:36;;;;;;;15.00;8.57;;;17.40;99.90;;;;;;5020135;28;20240;-79
2023/10/24 08:41:05;;;;;;;14.90;8.60;;;17.50;99.90;;;;;;5034917;28;20209;-78
2023/10/24 08:43:35;;;;;;;17.80;8.33;;;17.60;99.90;;;;;;4998954;28;20207;-78
2023/10/24 08:46:16;;;;;;;17.43;8.13;;;17.70;99.90;;;;;;5005365;28;20224;-79
2023/10/24 08:48:45;;;;;;;17.17;8.70;;;17.70;99.90;;;;;;5032374;28;20200;-79
2023/10/24 08:54:35;;;;;;;14.33;8.80;;;17.90;99.90;;;;;;5018386;28;20247;-78
2023/10/24 08:57:07;;;;;;;20.67;9.37;;;18.10;99.90;;;;;;5034542;28;20228;-79
2023/10/24 08:59:41;;;;;;;14.40;8.47;;;18.30;99.90;;;;;;5019396;28;20210;-78
2023/10/24 09:02:23;;;;;;;18.83;8.70;;;18.40;99.90;;;;;;5032923;28;20211;-78
2023/10/24 09:04:54;;;;;;;14.73;8.90;;;18.50;99.90;;;;;;5017403;28;20658;-78
2023/10/24 09:07:28;;;;;;;20.10;9.20;;;18.60;99.90;;;;;;5017773;28;20577;-79
2023/10/24 09:10:04;;;;;;;23.97;9.53;;;18.70;99.90;;;;;;5015050;28;20221;-79
2023/10/24 09:12:38;;;;;;;23.17;9.47;;;18.80;99.90;;;;;;5035003;28;20205;-78
2023/10/24 09:15:10;;;;;;;16.10;8.80;;;18.80;99.90;;;;;;4995075;28;20272;-78
2023/10/24 09:17:38;;;;;;;16.73;8.90;;;18.90;99.90;;;;;;5034491;28;20209;-78
2023/10/24 09:20:08;;;;;;;13.50;7.27;;;18.90;99.90;;;;;;5018592;28;20215;-79
2023/10/24 09:22:43;;;;;;;13.23;7.53;;;18.90;99.90;;;;;;5017360;28;20216;-79
2023/10/24 09:25:26;;;;;;;11.00;8.17;;;19.00;99.90;;;;;;5012227;28;20236;-79
2023/10/24 09:28:18;;;;;;;15.97;7.93;;;18.90;99.90;;;;;;4989426;28;20313;-79
2023/10/24 09:30:50;;;;;;;17.83;7.80;;;18.90;99.90;;;;;;5015955;28;20507;-79
2023/10/24 09:33:22;;;;;;;10.10;7.47;;;18.90;99.90;;;;;;5015955;28;20252;-79
2023/10/24 09:36:04;;;;;;;13.63;7.40;;;18.90;99.90;;;;;;5014620;28;20572;-78
2023/10/24 09:38:43;;;;;;;13.70;7.33;;;18.80;99.90;;;;;;5000432;28;20208;-78
2023/10/24 09:41:16;;;;;;;21.37;8.43;;;18.70;99.90;;;;;;5003018;28;20598;-79
2023/10/24 09:44:13;;;;;;;10.33;7.37;;;18.60;99.90;;;;;;5028338;28;20646;-79
2023/10/24 09:46:46;;;;;;;14.70;6.90;;;18.60;99.90;;;;;;5016277;28;20681;-79
2023/10/24 09:49:22;;;;;;;17.30;8.33;;;18.50;99.90;;;;;;5012370;28;20207;-79
2023/10/24 09:51:56;;;;;;;12.57;6.93;;;18.40;99.90;;;;;;5007449;28;20210;-79
2023/10/24 09:54:27;;;;;;;14.67;8.10;;;18.40;99.90;;;;;;5021287;28;20197;-79
2023/10/24 09:56:58;;;;;;;10.13;6.83;;;18.30;99.90;;;;;;5013690;28;20213;-79
2023/10/24 09:59:33;;;;;;;16.23;7.70;;;18.30;99.90;;;;;;4979444;28;20219;-79
2023/10/24 10:02:20;;;;;;;17.87;7.47;;;18.30;99.90;;;;;;5031944;28;20248;-79
2023/10/24 10:04:57;;;;;;;21.50;8.40;;;18.20;99.90;;;;;;5015859;28;20227;-79
2023/10/24 10:07:40;;;;;;;18.17;8.53;;;18.20;99.90;;;;;;4996889;28;20256;-79
2023/10/24 10:10:59;;;;;;;15.77;8.30;;;18.20;99.90;;;;;;4999315;28;20238;-79
2023/10/24 10:13:42;;;;;;;19.13;8.00;;;18.20;99.90;;;;;;5000489;28;20582;-79
2023/10/24 10:16:43;;;;;;;15.30;8.13;;;18.20;99.90;;;;;;5016618;28;20202;-79
2023/10/24 10:19:39;;;;;;;15.27;7.43;;;18.20;99.90;;;;;;4996004;28;20213;-79
2023/10/24 10:22:38;;;;;;;17.17;8.53;;;18.20;99.90;;;;;;5003068;28;20210;-78
2023/10/24 10:25:25;;;;;;;20.57;8.80;;;18.20;99.90;;;;;;5017099;28;20210;-78
2023/10/24 10:28:24;;;;;;;14.47;7.97;;;18.20;99.90;;;;;;5014445;28;20222;-78
2023/10/24 10:30:58;;;;;;;11.33;8.33;;;18.30;99.90;;;;;;5013324;28;20219;-79
2023/10/24 10:33:47;;;;;;;16.53;11.73;;;18.30;99.90;;;;;;5016479;28;20213;-80
2023/10/24 10:36:24;;;;;;;21.23;15.67;;;18.30;99.90;;;;;;4992027;28;20249;-81
2023/10/24 10:39:05;;;;;;;28.23;18.23;;;18.20;99.90;;;;;;5009882;28;20201;-81
2023/10/24 10:41:34;;;;;;;27.33;16.47;;;18.20;99.90;;;;;;5013839;28;20265;-81
2023/10/24 10:44:05;;;;;;;21.03;14.80;;;18.20;99.90;;;;;;5033244;28;20617;-82
2023/10/24 10:46:36;;;;;;;20.00;13.10;;;18.10;99.90;;;;;;5026465;28;20282;-81
2023/10/24 10:49:07;;;;;;;20.90;14.17;;;18.00;99.90;;;;;;5022476;28;20202;-82
2023/10/24 10:51:42;;;;;;;16.63;13.20;;;18.10;99.90;;;;;;4999311;28;20205;-83
2023/10/24 10:54:46;;;;;;;16.43;12.40;;;18.00;99.90;;;;;;5039919;28;20637;-83
2023/10/24 10:57:23;;;;;;;13.93;11.83;;;18.00;99.90;;;;;;5010686;28;20311;-81
2023/10/24 11:00:08;;;;;;;15.07;10.80;;;18.00;99.90;;;;;;5015827;28;20216;-84
2023/10/24 11:03:36;;;;;;;14.63;9.60;;;17.90;99.90;;;;;;5002255;28;20304;-81
2023/10/24 11:06:26;;;;;;;15.27;10.10;;;17.90;99.90;;;;;;5028998;28;20302;-83
2023/10/24 11:09:12;;;;;;;11.97;9.97;;;17.90;99.90;;;;;;4999850;28;20634;-82
2023/10/24 11:12:07;;;;;;;11.90;9.70;;;17.80;99.90;;;;;;5015507;28;20201;-82
2023/10/24 11:14:37;;;;;;;15.63;9.83;;;17.80;99.90;;;;;;4986929;28;20282;-82
2023/10/24 11:17:17;;;;;;;12.30;9.70;;;17.80;99.90;;;;;;5016072;28;20633;-84
2023/10/24 11:20:05;;;;;;;10.47;8.40;;;17.80;99.90;;;;;;4998164;28;20218;-84
2023/10/24 11:22:52;;;;;;;11.68;9.35;;;17.80;99.90;;;;;;5012399;28;20476;-83
2023/10/24 11:25:42;;;;;;;12.30;7.13;;;17.80;99.90;;;;;;4987691;28;20296;-84
2023/10/24 11:28:34;;;;;;;7.43;6.73;;;17.80;99.90;;;;;;5003628;28;20248;-83
2023/10/24 11:31:41;;;;;;;10.90;7.33;;;17.70;99.90;;;;;;5015955;28;20214;-84
2023/10/24 11:34:29;;;;;;;8.83;6.40;;;17.70;99.90;;;;;;5013824;28;20248;-82
2023/10/24 11:37:33;;;;;;;13.30;9.63;;;17.80;99.90;;;;;;5025361;28;20574;-83
2023/10/24 11:40:09;;;;;;;10.63;9.30;;;17.70;99.90;;;;;;5000771;28;20201;-84
2023/10/24 11:43:07;;;;;;;14.10;12.20;;;17.80;99.90;;;;;;5032400;28;20205;-84
2023/10/24 11:45:38;;;;;;;18.27;13.17;;;17.80;99.90;;;;;;5000167;28;20203;-84
2023/10/24 11:48:14;;;;;;;14.73;13.20;;;17.90;99.90;;;;;;5014843;28;20542;-83
2023/10/24 11:50:45;;;;;;;14.63;12.93;;;17.90;99.90;;;;;;5041890;28;20221;-82
2023/10/24 11:53:22;;;;;;;14.27;12.77;;;18.00;99.90;;;;;;5010415;28;20205;-82
2023/10/24 11:55:57;;;;;;;12.07;9.73;;;18.00;99.90;;;;;;5017198;28;20206;-84
2023/10/24 11:58:31;;;;;;;10.00;9.00;;;18.10;99.90;;;;;;5015505;28;20701;-82
2023/10/24 12:01:06;;;;;;;11.27;9.63;;;18.10;99.90;;;;;;5001070;28;20285;-82
2023/10/24 12:03:57;;;;;;;10.27;9.27;;;18.20;99.90;;;;;;5016809;28;20517;-81
2023/10/24 12:06:41;;;;;;;11.47;9.30;;;18.20;99.90;;;;;;5000071;28;20294;-81
2023/10/24 12:09:41;;;;;;;9.77;8.20;;;18.30;99.90;;;;;;5004337;28;20216;-81
2023/10/24 12:12:25;;;;;;;9.47;8.67;;;18.30;99.90;;;;;;4981205;28;20650;-82
2023/10/24 12:14:59;;;;;;;10.77;8.60;;;18.40;99.90;;;;;;5015479;28;20625;-81
2023/10/24 12:18:16;;;;;;;10.13;7.97;;;18.40;99.90;;;;;;5014177;28;20216;-82
2023/10/24 12:21:18;;;;;;;13.93;8.90;;;18.50;99.90;;;;;;5008001;28;20212;-82
2023/10/24 12:24:14;;;;;;;;;;;;;;;;;;;;;
2023/10/24 12:27:04;;;;;;;9.50;8.60;;;18.60;99.90;;;;;;5015723;28;20698;-82
2023/10/24 12:30:19;;;;;;;;;;;;;;;;;;;;;
2023/10/24 12:33:21;;;;;;;11.20;9.80;;;18.80;99.90;;;;;;5031209;28;20224;-81
2023/10/24 12:36:04;;;;;;;13.10;9.53;;;18.90;99.90;;;;;;5008145;28;20249;-81
2023/10/24 12:38:48;;;;;;;10.60;9.47;;;19.00;99.90;;;;;;5016915;28;20692;-79
2023/10/24 12:41:21;;;;;;;13.07;10.37;;;19.10;99.90;;;;;;5003204;28;20231;-79
2023/10/24 12:44:03;;;;;;;12.30;8.53;;;19.20;99.90;;;;;;4989343;28;20355;-80
2023/10/24 12:46:37;;;;;;;17.13;10.07;;;19.30;99.90;;;;;;5031161;28;20215;-79
2023/10/24 12:49:16;;;;;;;11.47;10.27;;;19.30;99.90;;;;;;4991749;28;20212;-80
2023/10/24 12:51:52;;;;;;;15.83;13.30;;;19.40;99.90;;;;;;4993733;28;20723;-79
2023/10/24 12:54:26;;;;;;;13.80;12.47;;;19.30;99.90;;;;;;5016302;28;20206;-79
2023/10/24 12:57:03;;;;;;;16.63;14.23;;;19.20;99.90;;;;;;5031386;28;20211;-79
2023/10/24 12:59:52;;;;;;;16.87;15.03;;;19.20;99.90;;;;;;4990492;28;20210;-80
2023/10/24 13:02:24;;;;;;;16.23;14.63;;;19.20;99.90;;;;;;5018180;28;20203;-79
2023/10/24 13:04:52;;;;;;;16.87;15.17;;;19.10;99.90;;;;;;5005704;28;20269;-79
2023/10/24 13:07:22;;;;;;;16.00;13.07;;;19.10;99.90;;;;;;5002470;28;20285;-79
2023/10/24 13:09:51;;;;;;;15.90;13.47;;;19.00;99.90;;;;;;5002662;28;20202;-79
2023/10/24 13:12:25;;;;;;;13.50;11.67;;;19.00;99.90;;;;;;5002672;28;20222;-80
2023/10/24 13:14:59;;;;;;;11.00;9.93;;;19.00;99.90;;;;;;5003148;28;20210;-79
2023/10/24 13:17:37;;;;;;;10.33;7.90;;;18.90;99.90;;;;;;5018477;28;20279;-79
2023/10/24 13:20:11;;;;;;;8.17;7.40;;;18.90;99.90;;;;;;5012569;28;20285;-80
2023/10/24 13:22:47;;;;;;;7.20;6.53;;;18.90;99.90;;;;;;5009713;28;20205;-79